sensor_id;sensor_type;location;lat;lon;timestamp;temperature;humidity
48836;DHT22;62581;47.342;7.908;2023-03-01T00:01:07;2.00;99.90
48836;DHT22;62581;47.342;7.908;2023-03-01T00:03:34;2.00;99.90
48836;DHT22;62581;47.342;7.908;2023-03-01T00:06:01;1.90;99.90
48836;DHT22;62581;47.342;7.908;2023-03-01T00:08:28;2.00;99.90
48836;DHT22;62581;47.342;7.908;2023-03-01T00:11:04;2.00;99.90
48836;DHT22;62581;47.342;7.908;2023-03-01T00:13:31;2.00;99.90
48836;DHT22;62581;47.342;7.908;2023-03-01T00:15:57;2.00;99.90
48836;DHT22;62581;47.342;7.908;2023-03-01T00:18:24;2.00;99.90
48836;DHT22;62581;47.342;7.908;2023-03-01T00:20:51;2.00;99.90
48836;DHT22;62581;47.342;7.908;2023-03-01T00:23:18;2.10;99.90
48836;DHT22;62581;47.342;7.908;2023-03-01T00:25:45;2.00;99.90
48836;DHT22;62581;47.342;7.908;2023-03-01T00:28:13;2.00;99.90
48836;DHT22;62581;47.342;7.908;2023-03-01T00:30:40;2.00;99.90
48836;DHT22;62581;47.342;7.908;2023-03-01T00:33:07;2.00;99.90
48836;DHT22;62581;47.342;7.908;2023-03-01T00:35:34;2.00;99.90
48836;DHT22;62581;47.342;7.908;2023-03-01T00:38:01;2.00;99.90
48836;DHT22;62581;47.342;7.908;2023-03-01T00:40:29;2.00;99.90
48836;DHT22;62581;47.342;7.908;2023-03-01T00:42:56;2.10;99.90
48836;DHT22;62581;47.342;7.908;2023-03-01T00:45:24;2.10;99.90
48836;DHT22;62581;47.342;7.908;2023-03-01T00:47:51;2.00;99.90
48836;DHT22;62581;47.342;7.908;2023-03-01T00:50:18;2.10;99.90
48836;DHT22;62581;47.342;7.908;2023-03-01T00:52:45;2.00;99.90
48836;DHT22;62581;47.342;7.908;2023-03-01T00:55:11;2.10;99.90
48836;DHT22;62581;47.342;7.908;2023-03-01T00:57:38;2.10;99.90
48836;DHT22;62581;47.342;7.908;2023-03-01T01:00:06;2.10;99.90
48836;DHT22;62581;47.342;7.908;2023-03-01T01:02:34;2.10;99.90
48836;DHT22;62581;47.342;7.908;2023-03-01T01:05:01;2.10;99.90
48836;DHT22;62581;47.342;7.908;2023-03-01T01:07:28;2.10;99.90
48836;DHT22;62581;47.342;7.908;2023-03-01T01:09:55;2.10;99.90
48836;DHT22;62581;47.342;7.908;2023-03-01T01:12:21;2.10;99.90
48836;DHT22;62581;47.342;7.908;2023-03-01T01:14:48;2.10;99.90
48836;DHT22;62581;47.342;7.908;2023-03-01T01:17:15;2.10;99.90
48836;DHT22;62581;47.342;7.908;2023-03-01T01:19:43;2.10;99.90
48836;DHT22;62581;47.342;7.908;2023-03-01T01:22:10;2.10;99.90
48836;DHT22;62581;47.342;7.908;2023-03-01T01:24:37;2.20;99.90
48836;DHT22;62581;47.342;7.908;2023-03-01T01:27:03;2.20;99.90
48836;DHT22;62581;47.342;7.908;2023-03-01T01:29:31;2.20;99.90
48836;DHT22;62581;47.342;7.908;2023-03-01T01:31:57;2.20;99.90
48836;DHT22;62581;47.342;7.908;2023-03-01T01:34:24;2.20;99.90
48836;DHT22;62581;47.342;7.908;2023-03-01T01:36:53;2.20;99.90
48836;DHT22;62581;47.342;7.908;2023-03-01T01:39:20;2.20;99.90
48836;DHT22;62581;47.342;7.908;2023-03-01T01:41:46;2.20;99.90
48836;DHT22;62581;47.342;7.908;2023-03-01T01:44:17;2.20;99.90
48836;DHT22;62581;47.342;7.908;2023-03-01T01:46:46;2.20;99.90
48836;DHT22;62581;47.342;7.908;2023-03-01T01:49:17;2.20;99.90
48836;DHT22;62581;47.342;7.908;2023-03-01T01:51:45;2.30;99.90
48836;DHT22;62581;47.342;7.908;2023-03-01T01:54:15;2.30;99.90
48836;DHT22;62581;47.342;7.908;2023-03-01T01:56:47;2.30;99.90
48836;DHT22;62581;47.342;7.908;2023-03-01T01:59:16;2.40;99.90
48836;DHT22;62581;47.342;7.908;2023-03-01T02:01:43;2.30;99.90
48836;DHT22;62581;47.342;7.908;2023-03-01T02:04:10;2.30;99.90
48836;DHT22;62581;47.342;7.908;2023-03-01T02:06:38;2.30;99.90
48836;DHT22;62581;47.342;7.908;2023-03-01T02:09:07;2.30;99.90
48836;DHT22;62581;47.342;7.908;2023-03-01T02:11:37;2.20;99.90
48836;DHT22;62581;47.342;7.908;2023-03-01T02:14:04;2.30;99.90
48836;DHT22;62581;47.342;7.908;2023-03-01T02:16:31;2.30;99.90
48836;DHT22;62581;47.342;7.908;2023-03-01T02:18:58;2.30;99.90
48836;DHT22;62581;47.342;7.908;2023-03-01T02:21:35;2.30;99.90
48836;DHT22;62581;47.342;7.908;2023-03-01T02:24:04;2.30;99.90
48836;DHT22;62581;47.342;7.908;2023-03-01T02:26:34;2.20;99.90
48836;DHT22;62581;47.342;7.908;2023-03-01T02:29:04;2.20;99.90
48836;DHT22;62581;47.342;7.908;2023-03-01T02:31:32;2.20;99.90
48836;DHT22;62581;47.342;7.908;2023-03-01T02:34:11;2.20;99.90
48836;DHT22;62581;47.342;7.908;2023-03-01T02:36:38;2.20;99.90
48836;DHT22;62581;47.342;7.908;2023-03-01T02:39:07;2.30;99.90
48836;DHT22;62581;47.342;7.908;2023-03-01T02:41:41;2.30;99.90
48836;DHT22;62581;47.342;7.908;2023-03-01T02:44:10;2.20;99.90
48836;DHT22;62581;47.342;7.908;2023-03-01T02:46:41;2.20;99.90
48836;DHT22;62581;47.342;7.908;2023-03-01T02:49:19;2.30;99.90
48836;DHT22;62581;47.342;7.908;2023-03-01T02:51:48;2.30;99.90
48836;DHT22;62581;47.342;7.908;2023-03-01T02:54:21;2.30;99.90
48836;DHT22;62581;47.342;7.908;2023-03-01T02:56:50;2.30;99.90
48836;DHT22;62581;47.342;7.908;2023-03-01T02:59:19;2.30;99.90
48836;DHT22;62581;47.342;7.908;2023-03-01T03:01:47;2.40;99.90
48836;DHT22;62581;47.342;7.908;2023-03-01T03:04:14;2.30;99.90
48836;DHT22;62581;47.342;7.908;2023-03-01T03:06:42;2.40;99.90
48836;DHT22;62581;47.342;7.908;2023-03-01T03:09:09;2.30;99.90
48836;DHT22;62581;47.342;7.908;2023-03-01T03:11:36;2.40;99.90
48836;DHT22;62581;47.342;7.908;2023-03-01T03:14:04;2.30;99.90
48836;DHT22;62581;47.342;7.908;2023-03-01T03:16:32;2.40;99.90
48836;DHT22;62581;47.342;7.908;2023-03-01T03:18:59;2.30;99.90
48836;DHT22;62581;47.342;7.908;2023-03-01T03:21:30;2.30;99.90
48836;DHT22;62581;47.342;7.908;2023-03-01T03:23:57;2.40;99.90
48836;DHT22;62581;47.342;7.908;2023-03-01T03:26:24;2.40;99.90
48836;DHT22;62581;47.342;7.908;2023-03-01T03:28:50;2.30;99.90
48836;DHT22;62581;47.342;7.908;2023-03-01T03:31:17;2.30;99.90
48836;DHT22;62581;47.342;7.908;2023-03-01T03:33:45;2.40;99.90
48836;DHT22;62581;47.342;7.908;2023-03-01T03:36:14;2.40;99.90
48836;DHT22;62581;47.342;7.908;2023-03-01T03:38:43;2.40;99.90
48836;DHT22;62581;47.342;7.908;2023-03-01T03:41:11;2.40;99.90
48836;DHT22;62581;47.342;7.908;2023-03-01T03:43:38;2.40;99.90
48836;DHT22;62581;47.342;7.908;2023-03-01T03:46:06;2.40;99.90
48836;DHT22;62581;47.342;7.908;2023-03-01T03:48:34;2.40;99.90
48836;DHT22;62581;47.342;7.908;2023-03-01T03:51:02;2.40;99.90
48836;DHT22;62581;47.342;7.908;2023-03-01T03:53:30;2.40;99.90
48836;DHT22;62581;47.342;7.908;2023-03-01T03:55:57;2.40;99.90
48836;DHT22;62581;47.342;7.908;2023-03-01T03:58:24;2.40;99.90
48836;DHT22;62581;47.342;7.908;2023-03-01T04:00:52;2.40;99.90
48836;DHT22;62581;47.342;7.908;2023-03-01T04:03:21;2.40;99.90
48836;DHT22;62581;47.342;7.908;2023-03-01T04:05:48;2.50;99.90
48836;DHT22;62581;47.342;7.908;2023-03-01T04:08:17;2.50;99.90
48836;DHT22;62581;47.342;7.908;2023-03-01T04:10:46;2.50;99.90
48836;DHT22;62581;47.342;7.908;2023-03-01T04:13:15;2.50;99.90
48836;DHT22;62581;47.342;7.908;2023-03-01T04:15:42;2.50;99.90
48836;DHT22;62581;47.342;7.908;2023-03-01T04:18:09;2.50;99.90
48836;DHT22;62581;47.342;7.908;2023-03-01T04:20:38;2.50;99.90
48836;DHT22;62581;47.342;7.908;2023-03-01T04:23:06;2.50;99.90
48836;DHT22;62581;47.342;7.908;2023-03-01T04:25:41;2.50;99.90
48836;DHT22;62581;47.342;7.908;2023-03-01T04:28:08;2.50;99.90
48836;DHT22;62581;47.342;7.908;2023-03-01T04:30:35;2.60;99.90
48836;DHT22;62581;47.342;7.908;2023-03-01T04:33:02;2.50;99.90
48836;DHT22;62581;47.342;7.908;2023-03-01T04:35:29;2.50;99.90
48836;DHT22;62581;47.342;7.908;2023-03-01T04:37:56;2.50;99.90
48836;DHT22;62581;47.342;7.908;2023-03-01T04:40:23;2.60;99.90
48836;DHT22;62581;47.342;7.908;2023-03-01T04:42:51;2.50;99.90
48836;DHT22;62581;47.342;7.908;2023-03-01T04:45:18;2.50;99.90
48836;DHT22;62581;47.342;7.908;2023-03-01T04:47:45;2.50;99.90
48836;DHT22;62581;47.342;7.908;2023-03-01T04:50:13;2.50;99.90
48836;DHT22;62581;47.342;7.908;2023-03-01T04:52:40;2.50;99.90
48836;DHT22;62581;47.342;7.908;2023-03-01T04:55:07;2.60;99.90
48836;DHT22;62581;47.342;7.908;2023-03-01T04:57:34;2.60;99.90
48836;DHT22;62581;47.342;7.908;2023-03-01T05:00:03;2.50;99.90
48836;DHT22;62581;47.342;7.908;2023-03-01T05:02:45;2.60;99.90
48836;DHT22;62581;47.342;7.908;2023-03-01T05:05:13;2.50;99.90
48836;DHT22;62581;47.342;7.908;2023-03-01T05:07:40;2.60;99.90
48836;DHT22;62581;47.342;7.908;2023-03-01T05:10:08;2.60;99.90
48836;DHT22;62581;47.342;7.908;2023-03-01T05:12:35;2.60;99.90
48836;DHT22;62581;47.342;7.908;2023-03-01T05:15:04;2.60;99.90
48836;DHT22;62581;47.342;7.908;2023-03-01T05:17:32;2.60;99.90
48836;DHT22;62581;47.342;7.908;2023-03-01T05:19:59;2.60;99.90
48836;DHT22;62581;47.342;7.908;2023-03-01T05:22:26;2.60;99.90
48836;DHT22;62581;47.342;7.908;2023-03-01T05:24:53;2.60;99.90
48836;DHT22;62581;47.342;7.908;2023-03-01T05:27:20;2.60;99.90
48836;DHT22;62581;47.342;7.908;2023-03-01T05:29:47;2.60;99.90
48836;DHT22;62581;47.342;7.908;2023-03-01T05:32:15;2.60;99.90
48836;DHT22;62581;47.342;7.908;2023-03-01T05:34:42;2.60;99.90
48836;DHT22;62581;47.342;7.908;2023-03-01T05:37:09;2.60;99.90
48836;DHT22;62581;47.342;7.908;2023-03-01T05:39:36;2.60;99.90
48836;DHT22;62581;47.342;7.908;2023-03-01T05:42:02;2.60;99.90
48836;DHT22;62581;47.342;7.908;2023-03-01T05:44:29;2.60;99.90
48836;DHT22;62581;47.342;7.908;2023-03-01T05:46:56;2.60;99.90
48836;DHT22;62581;47.342;7.908;2023-03-01T05:49:25;2.60;99.90
48836;DHT22;62581;47.342;7.908;2023-03-01T05:51:52;2.60;99.90
48836;DHT22;62581;47.342;7.908;2023-03-01T05:54:19;2.60;99.90
48836;DHT22;62581;47.342;7.908;2023-03-01T05:56:46;2.60;99.90
48836;DHT22;62581;47.342;7.908;2023-03-01T05:59:13;2.60;99.90
48836;DHT22;62581;47.342;7.908;2023-03-01T06:01:41;2.60;99.90
48836;DHT22;62581;47.342;7.908;2023-03-01T06:04:08;2.60;99.90
48836;DHT22;62581;47.342;7.908;2023-03-01T06:06:36;2.60;99.90
48836;DHT22;62581;47.342;7.908;2023-03-01T06:09:03;2.70;99.90
48836;DHT22;62581;47.342;7.908;2023-03-01T06:11:33;2.60;99.90
48836;DHT22;62581;47.342;7.908;2023-03-01T06:14:00;2.60;99.90
48836;DHT22;62581;47.342;7.908;2023-03-01T06:16:27;2.70;99.90
48836;DHT22;62581;47.342;7.908;2023-03-01T06:18:54;2.70;99.90
48836;DHT22;62581;47.342;7.908;2023-03-01T06:21:20;2.70;99.90
48836;DHT22;62581;47.342;7.908;2023-03-01T06:23:48;2.70;99.90
48836;DHT22;62581;47.342;7.908;2023-03-01T06:26:15;2.80;99.90
48836;DHT22;62581;47.342;7.908;2023-03-01T06:28:43;2.70;99.90
48836;DHT22;62581;47.342;7.908;2023-03-01T06:31:11;2.70;99.90
48836;DHT22;62581;47.342;7.908;2023-03-01T06:33:38;2.70;99.90
48836;DHT22;62581;47.342;7.908;2023-03-01T06:36:05;2.80;99.90
48836;DHT22;62581;47.342;7.908;2023-03-01T06:38:33;2.80;99.90
48836;DHT22;62581;47.342;7.908;2023-03-01T06:41:01;2.70;99.90
48836;DHT22;62581;47.342;7.908;2023-03-01T06:43:27;2.70;99.90
48836;DHT22;62581;47.342;7.908;2023-03-01T06:45:55;2.70;99.90
48836;DHT22;62581;47.342;7.908;2023-03-01T06:48:21;2.70;99.90
48836;DHT22;62581;47.342;7.908;2023-03-01T06:50:48;2.70;99.90
48836;DHT22;62581;47.342;7.908;2023-03-01T06:53:15;2.70;99.90
48836;DHT22;62581;47.342;7.908;2023-03-01T06:55:41;2.70;99.90
48836;DHT22;62581;47.342;7.908;2023-03-01T06:58:10;2.70;99.90
48836;DHT22;62581;47.342;7.908;2023-03-01T07:00:37;2.70;99.90
48836;DHT22;62581;47.342;7.908;2023-03-01T07:03:06;2.70;99.90
48836;DHT22;62581;47.342;7.908;2023-03-01T07:05:33;2.70;99.90
48836;DHT22;62581;47.342;7.908;2023-03-01T07:07:59;2.70;99.90
48836;DHT22;62581;47.342;7.908;2023-03-01T07:10:26;2.70;99.90
48836;DHT22;62581;47.342;7.908;2023-03-01T07:12:54;2.70;99.90
48836;DHT22;62581;47.342;7.908;2023-03-01T07:15:22;2.70;99.90
48836;DHT22;62581;47.342;7.908;2023-03-01T07:17:49;2.70;99.90
48836;DHT22;62581;47.342;7.908;2023-03-01T07:20:16;2.80;99.90
48836;DHT22;62581;47.342;7.908;2023-03-01T07:22:43;2.80;99.90
48836;DHT22;62581;47.342;7.908;2023-03-01T07:25:10;2.80;99.90
48836;DHT22;62581;47.342;7.908;2023-03-01T07:27:37;2.80;99.90
48836;DHT22;62581;47.342;7.908;2023-03-01T07:30:04;2.80;99.90
48836;DHT22;62581;47.342;7.908;2023-03-01T07:32:32;2.80;99.90
48836;DHT22;62581;47.342;7.908;2023-03-01T07:34:59;2.80;99.90
48836;DHT22;62581;47.342;7.908;2023-03-01T07:37:25;2.80;99.90
48836;DHT22;62581;47.342;7.908;2023-03-01T07:39:52;2.80;99.90
48836;DHT22;62581;47.342;7.908;2023-03-01T07:42:19;2.80;99.90
48836;DHT22;62581;47.342;7.908;2023-03-01T07:44:46;2.80;99.90
48836;DHT22;62581;47.342;7.908;2023-03-01T07:47:12;2.80;99.90
48836;DHT22;62581;47.342;7.908;2023-03-01T07:49:40;2.80;99.90
48836;DHT22;62581;47.342;7.908;2023-03-01T07:52:09;2.80;99.90
48836;DHT22;62581;47.342;7.908;2023-03-01T07:54:35;2.80;99.90
48836;DHT22;62581;47.342;7.908;2023-03-01T07:57:02;2.80;99.90
48836;DHT22;62581;47.342;7.908;2023-03-01T07:59:29;2.80;99.90
48836;DHT22;62581;47.342;7.908;2023-03-01T08:01:56;2.80;99.90
48836;DHT22;62581;47.342;7.908;2023-03-01T08:04:23;2.80;99.90
48836;DHT22;62581;47.342;7.908;2023-03-01T08:06:53;2.80;99.90
48836;DHT22;62581;47.342;7.908;2023-03-01T08:09:20;2.80;99.90
48836;DHT22;62581;47.342;7.908;2023-03-01T08:11:47;2.80;99.90
48836;DHT22;62581;47.342;7.908;2023-03-01T08:14:13;2.80;99.90
48836;DHT22;62581;47.342;7.908;2023-03-01T08:16:40;2.80;99.90
48836;DHT22;62581;47.342;7.908;2023-03-01T08:19:08;2.90;99.90
48836;DHT22;62581;47.342;7.908;2023-03-01T08:21:35;2.80;99.90
48836;DHT22;62581;47.342;7.908;2023-03-01T08:24:04;2.80;99.90
48836;DHT22;62581;47.342;7.908;2023-03-01T08:26:31;2.90;99.90
48836;DHT22;62581;47.342;7.908;2023-03-01T08:28:59;2.90;99.90
48836;DHT22;62581;47.342;7.908;2023-03-01T08:31:27;2.90;99.90
48836;DHT22;62581;47.342;7.908;2023-03-01T08:33:56;2.90;99.90
48836;DHT22;62581;47.342;7.908;2023-03-01T08:36:23;3.00;99.90
48836;DHT22;62581;47.342;7.908;2023-03-01T08:38:50;3.00;99.90
48836;DHT22;62581;47.342;7.908;2023-03-01T08:41:18;3.00;99.90
48836;DHT22;62581;47.342;7.908;2023-03-01T08:43:45;3.00;99.90
48836;DHT22;62581;47.342;7.908;2023-03-01T08:46:12;3.00;99.90
48836;DHT22;62581;47.342;7.908;2023-03-01T08:48:39;3.00;99.90
48836;DHT22;62581;47.342;7.908;2023-03-01T08:51:08;3.00;99.90
48836;DHT22;62581;47.342;7.908;2023-03-01T08:53:35;3.00;99.90
48836;DHT22;62581;47.342;7.908;2023-03-01T08:56:02;3.00;99.90
48836;DHT22;62581;47.342;7.908;2023-03-01T08:58:30;3.00;99.90
48836;DHT22;62581;47.342;7.908;2023-03-01T09:00:57;3.00;99.90
48836;DHT22;62581;47.342;7.908;2023-03-01T09:03:24;3.00;99.90
48836;DHT22;62581;47.342;7.908;2023-03-01T09:05:51;3.00;99.90
48836;DHT22;62581;47.342;7.908;2023-03-01T09:08:18;3.00;99.90
48836;DHT22;62581;47.342;7.908;2023-03-01T09:10:44;3.10;99.90
48836;DHT22;62581;47.342;7.908;2023-03-01T09:13:11;3.10;99.90
48836;DHT22;62581;47.342;7.908;2023-03-01T09:15:39;3.10;99.90
48836;DHT22;62581;47.342;7.908;2023-03-01T09:18:06;3.10;99.90
48836;DHT22;62581;47.342;7.908;2023-03-01T09:20:33;3.20;99.90
48836;DHT22;62581;47.342;7.908;2023-03-01T09:23:00;3.20;99.90
48836;DHT22;62581;47.342;7.908;2023-03-01T09:25:26;3.20;99.90
48836;DHT22;62581;47.342;7.908;2023-03-01T09:27:53;3.20;99.90
48836;DHT22;62581;47.342;7.908;2023-03-01T09:30:20;3.20;99.90
48836;DHT22;62581;47.342;7.908;2023-03-01T09:32:48;3.30;99.90
48836;DHT22;62581;47.342;7.908;2023-03-01T09:35:15;3.30;99.90
48836;DHT22;62581;47.342;7.908;2023-03-01T09:37:42;3.30;99.90
48836;DHT22;62581;47.342;7.908;2023-03-01T09:40:11;3.30;99.90
48836;DHT22;62581;47.342;7.908;2023-03-01T09:42:45;3.30;99.90
48836;DHT22;62581;47.342;7.908;2023-03-01T09:45:15;3.30;99.90
48836;DHT22;62581;47.342;7.908;2023-03-01T09:47:45;3.40;99.90
48836;DHT22;62581;47.342;7.908;2023-03-01T09:50:16;3.40;99.90
48836;DHT22;62581;47.342;7.908;2023-03-01T09:52:46;3.40;99.90
48836;DHT22;62581;47.342;7.908;2023-03-01T09:55:15;3.50;99.90
48836;DHT22;62581;47.342;7.908;2023-03-01T09:57:45;3.50;99.90
48836;DHT22;62581;47.342;7.908;2023-03-01T10:00:19;3.50;99.90
48836;DHT22;62581;47.342;7.908;2023-03-01T10:02:49;3.50;99.90
48836;DHT22;62581;47.342;7.908;2023-03-01T10:05:28;3.50;99.90
48836;DHT22;62581;47.342;7.908;2023-03-01T10:08:00;3.50;99.90
48836;DHT22;62581;47.342;7.908;2023-03-01T10:10:31;3.50;99.90
48836;DHT22;62581;47.342;7.908;2023-03-01T10:12:59;3.50;99.90
48836;DHT22;62581;47.342;7.908;2023-03-01T10:15:30;3.50;99.90
48836;DHT22;62581;47.342;7.908;2023-03-01T10:18:00;3.50;99.90
48836;DHT22;62581;47.342;7.908;2023-03-01T10:20:33;3.50;99.90
48836;DHT22;62581;47.342;7.908;2023-03-01T10:23:04;3.50;99.90
48836;DHT22;62581;47.342;7.908;2023-03-01T10:25:37;3.50;99.90
48836;DHT22;62581;47.342;7.908;2023-03-01T10:28:10;3.50;99.90
48836;DHT22;62581;47.342;7.908;2023-03-01T10:30:42;3.50;99.90
48836;DHT22;62581;47.342;7.908;2023-03-01T10:33:13;3.50;99.90
48836;DHT22;62581;47.342;7.908;2023-03-01T10:35:42;3.60;99.90
48836;DHT22;62581;47.342;7.908;2023-03-01T10:38:09;3.60;99.90
48836;DHT22;62581;47.342;7.908;2023-03-01T10:40:37;3.60;99.90
48836;DHT22;62581;47.342;7.908;2023-03-01T10:43:15;3.70;99.90
48836;DHT22;62581;47.342;7.908;2023-03-01T10:45:42;3.50;99.90
48836;DHT22;62581;47.342;7.908;2023-03-01T10:48:11;3.60;99.90
48836;DHT22;62581;47.342;7.908;2023-03-01T10:50:38;3.60;99.90
48836;DHT22;62581;47.342;7.908;2023-03-01T10:53:21;3.60;99.90
48836;DHT22;62581;47.342;7.908;2023-03-01T10:55:56;3.50;99.90
48836;DHT22;62581;47.342;7.908;2023-03-01T10:58:23;3.50;99.90
48836;DHT22;62581;47.342;7.908;2023-03-01T11:00:50;3.60;99.90
48836;DHT22;62581;47.342;7.908;2023-03-01T11:03:19;3.60;99.90
48836;DHT22;62581;47.342;7.908;2023-03-01T11:05:52;3.70;99.90
48836;DHT22;62581;47.342;7.908;2023-03-01T11:08:30;3.70;99.90
48836;DHT22;62581;47.342;7.908;2023-03-01T11:11:13;3.80;99.90
48836;DHT22;62581;47.342;7.908;2023-03-01T11:13:47;3.80;99.90
48836;DHT22;62581;47.342;7.908;2023-03-01T11:16:16;3.70;99.90
48836;DHT22;62581;47.342;7.908;2023-03-01T11:18:55;3.80;99.90
48836;DHT22;62581;47.342;7.908;2023-03-01T11:21:22;3.80;99.90
48836;DHT22;62581;47.342;7.908;2023-03-01T11:23:51;3.80;99.90
48836;DHT22;62581;47.342;7.908;2023-03-01T11:26:17;3.90;99.90
48836;DHT22;62581;47.342;7.908;2023-03-01T11:28:45;3.80;99.90
48836;DHT22;62581;47.342;7.908;2023-03-01T11:31:14;3.90;99.90
48836;DHT22;62581;47.342;7.908;2023-03-01T11:33:43;3.90;99.90
48836;DHT22;62581;47.342;7.908;2023-03-01T11:36:15;3.90;99.90
48836;DHT22;62581;47.342;7.908;2023-03-01T11:38:42;3.90;99.90
48836;DHT22;62581;47.342;7.908;2023-03-01T11:41:13;3.80;99.90
48836;DHT22;62581;47.342;7.908;2023-03-01T11:43:43;3.80;99.90
48836;DHT22;62581;47.342;7.908;2023-03-01T11:46:29;3.80;99.90
48836;DHT22;62581;47.342;7.908;2023-03-01T11:49:04;3.80;99.90
48836;DHT22;62581;47.342;7.908;2023-03-01T11:51:38;3.80;99.90
48836;DHT22;62581;47.342;7.908;2023-03-01T11:54:09;3.90;99.90
48836;DHT22;62581;47.342;7.908;2023-03-01T11:56:42;3.90;99.90
48836;DHT22;62581;47.342;7.908;2023-03-01T11:59:20;3.90;99.90
48836;DHT22;62581;47.342;7.908;2023-03-01T12:01:55;3.90;99.90
48836;DHT22;62581;47.342;7.908;2023-03-01T12:04:39;3.80;99.90
48836;DHT22;62581;47.342;7.908;2023-03-01T12:07:12;3.80;99.90
48836;DHT22;62581;47.342;7.908;2023-03-01T12:09:48;3.90;99.90
48836;DHT22;62581;47.342;7.908;2023-03-01T12:17:54;3.90;99.90
48836;DHT22;62581;47.342;7.908;2023-03-01T12:20:26;3.90;99.90
48836;DHT22;62581;47.342;7.908;2023-03-01T12:22:59;3.90;99.90
48836;DHT22;62581;47.342;7.908;2023-03-01T12:25:31;3.90;99.90
48836;DHT22;62581;47.342;7.908;2023-03-01T12:28:09;3.90;99.90
48836;DHT22;62581;47.342;7.908;2023-03-01T12:30:41;3.90;99.90
48836;DHT22;62581;47.342;7.908;2023-03-01T12:33:19;3.90;99.90
48836;DHT22;62581;47.342;7.908;2023-03-01T12:38:46;3.90;99.90
48836;DHT22;62581;47.342;7.908;2023-03-01T12:41:20;3.90;99.90
48836;DHT22;62581;47.342;7.908;2023-03-01T12:43:53;3.90;99.90
48836;DHT22;62581;47.342;7.908;2023-03-01T12:46:25;3.90;99.90
48836;DHT22;62581;47.342;7.908;2023-03-01T12:48:59;4.00;99.90
48836;DHT22;62581;47.342;7.908;2023-03-01T12:51:30;4.00;99.90
48836;DHT22;62581;47.342;7.908;2023-03-01T12:53:57;4.00;99.90
48836;DHT22;62581;47.342;7.908;2023-03-01T12:56:25;4.00;99.90
48836;DHT22;62581;47.342;7.908;2023-03-01T12:58:55;4.00;99.90
48836;DHT22;62581;47.342;7.908;2023-03-01T13:01:27;4.00;99.90
48836;DHT22;62581;47.342;7.908;2023-03-01T13:04:05;4.10;99.90
48836;DHT22;62581;47.342;7.908;2023-03-01T13:06:38;4.00;99.90
48836;DHT22;62581;47.342;7.908;2023-03-01T13:09:10;3.90;99.90
48836;DHT22;62581;47.342;7.908;2023-03-01T13:11:41;4.00;99.90
48836;DHT22;62581;47.342;7.908;2023-03-01T13:16:49;3.90;99.90
48836;DHT22;62581;47.342;7.908;2023-03-01T13:19:18;4.00;99.90
48836;DHT22;62581;47.342;7.908;2023-03-01T13:21:46;3.90;99.90
48836;DHT22;62581;47.342;7.908;2023-03-01T13:24:26;3.90;99.90
48836;DHT22;62581;47.342;7.908;2023-03-01T13:27:21;4.00;99.90
48836;DHT22;62581;47.342;7.908;2023-03-01T13:29:51;4.00;99.90
48836;DHT22;62581;47.342;7.908;2023-03-01T13:32:22;4.10;99.90
48836;DHT22;62581;47.342;7.908;2023-03-01T13:34:54;4.10;99.90
48836;DHT22;62581;47.342;7.908;2023-03-01T13:37:22;4.10;99.90
48836;DHT22;62581;47.342;7.908;2023-03-01T13:39:51;4.10;99.90
48836;DHT22;62581;47.342;7.908;2023-03-01T13:42:38;4.10;99.90
48836;DHT22;62581;47.342;7.908;2023-03-01T13:45:12;4.00;99.90
48836;DHT22;62581;47.342;7.908;2023-03-01T13:47:41;4.00;99.90
48836;DHT22;62581;47.342;7.908;2023-03-01T13:50:16;4.00;99.90
48836;DHT22;62581;47.342;7.908;2023-03-01T13:52:43;4.10;99.90
48836;DHT22;62581;47.342;7.908;2023-03-01T13:55:15;4.00;99.90
48836;DHT22;62581;47.342;7.908;2023-03-01T13:57:43;4.00;99.90
48836;DHT22;62581;47.342;7.908;2023-03-01T14:00:24;3.90;99.90
48836;DHT22;62581;47.342;7.908;2023-03-01T14:02:59;4.00;99.90
48836;DHT22;62581;47.342;7.908;2023-03-01T14:05:27;4.00;99.90
48836;DHT22;62581;47.342;7.908;2023-03-01T14:07:55;4.00;99.90
48836;DHT22;62581;47.342;7.908;2023-03-01T14:10:22;4.00;99.90
48836;DHT22;62581;47.342;7.908;2023-03-01T14:12:52;3.90;99.90
48836;DHT22;62581;47.342;7.908;2023-03-01T14:15:22;3.90;99.90
48836;DHT22;62581;47.342;7.908;2023-03-01T14:17:58;3.90;99.90
48836;DHT22;62581;47.342;7.908;2023-03-01T14:20:28;3.80;99.90
48836;DHT22;62581;47.342;7.908;2023-03-01T14:22:55;3.90;99.90
48836;DHT22;62581;47.342;7.908;2023-03-01T14:25:24;3.90;99.90
48836;DHT22;62581;47.342;7.908;2023-03-01T14:27:52;3.90;99.90
48836;DHT22;62581;47.342;7.908;2023-03-01T14:30:21;3.90;99.90
48836;DHT22;62581;47.342;7.908;2023-03-01T14:32:52;3.90;99.90
48836;DHT22;62581;47.342;7.908;2023-03-01T14:35:20;3.90;99.90
48836;DHT22;62581;47.342;7.908;2023-03-01T14:37:49;3.90;99.90
48836;DHT22;62581;47.342;7.908;2023-03-01T14:40:20;3.90;99.90
48836;DHT22;62581;47.342;7.908;2023-03-01T14:42:47;3.90;99.90
48836;DHT22;62581;47.342;7.908;2023-03-01T14:45:14;3.90;99.90
48836;DHT22;62581;47.342;7.908;2023-03-01T14:47:43;3.90;99.90
48836;DHT22;62581;47.342;7.908;2023-03-01T14:50:15;3.90;99.90
48836;DHT22;62581;47.342;7.908;2023-03-01T14:52:46;3.90;99.90
48836;DHT22;62581;47.342;7.908;2023-03-01T14:55:15;3.80;99.90
48836;DHT22;62581;47.342;7.908;2023-03-01T14:57:43;3.80;99.90
48836;DHT22;62581;47.342;7.908;2023-03-01T15:00:13;3.80;99.90
48836;DHT22;62581;47.342;7.908;2023-03-01T15:02:42;3.90;99.90
48836;DHT22;62581;47.342;7.908;2023-03-01T15:05:09;3.90;99.90
48836;DHT22;62581;47.342;7.908;2023-03-01T15:07:37;3.90;99.90
48836;DHT22;62581;47.342;7.908;2023-03-01T15:10:05;3.90;99.90
48836;DHT22;62581;47.342;7.908;2023-03-01T15:12:38;3.90;99.90
48836;DHT22;62581;47.342;7.908;2023-03-01T15:17:52;3.80;99.90
48836;DHT22;62581;47.342;7.908;2023-03-01T15:20:22;3.90;99.90
48836;DHT22;62581;47.342;7.908;2023-03-01T15:22:51;3.90;99.90
48836;DHT22;62581;47.342;7.908;2023-03-01T15:25:18;3.90;99.90
48836;DHT22;62581;47.342;7.908;2023-03-01T15:27:47;3.90;99.90
48836;DHT22;62581;47.342;7.908;2023-03-01T15:30:17;3.90;99.90
48836;DHT22;62581;47.342;7.908;2023-03-01T15:32:44;3.90;99.90
48836;DHT22;62581;47.342;7.908;2023-03-01T15:38:23;3.80;99.90
48836;DHT22;62581;47.342;7.908;2023-03-01T15:40:51;3.80;99.90
48836;DHT22;62581;47.342;7.908;2023-03-01T15:46:03;3.80;99.90
48836;DHT22;62581;47.342;7.908;2023-03-01T15:48:30;3.80;99.90
48836;DHT22;62581;47.342;7.908;2023-03-01T15:50:57;3.80;99.90
48836;DHT22;62581;47.342;7.908;2023-03-01T15:53:24;3.80;99.90
48836;DHT22;62581;47.342;7.908;2023-03-01T15:55:53;3.70;99.90
48836;DHT22;62581;47.342;7.908;2023-03-01T15:58:21;3.70;99.90
48836;DHT22;62581;47.342;7.908;2023-03-01T16:00:47;3.70;99.90
48836;DHT22;62581;47.342;7.908;2023-03-01T16:03:22;3.70;99.90
48836;DHT22;62581;47.342;7.908;2023-03-01T16:05:49;3.70;99.90
48836;DHT22;62581;47.342;7.908;2023-03-01T16:08:17;3.80;99.90
48836;DHT22;62581;47.342;7.908;2023-03-01T16:10:43;3.70;99.90
48836;DHT22;62581;47.342;7.908;2023-03-01T16:13:11;3.70;99.90
48836;DHT22;62581;47.342;7.908;2023-03-01T16:15:38;3.70;99.90